Time;durP1;ratioP1;P1;durP2;ratioP2;P2;SDS_P1;SDS_P2;PMS_P1;PMS_P2;Temp;Humidity;BMP_temperature;BMP_pressure;BME280_temperature;BME280_humidity;BME280_pressure;Samples;Min_cycle;Max_cycle;Signal;HPM_P1;HPM_P2
2023/06/03 00:00:18;;;;;;;3.20;1.30;;;9.50;99.90;;;;;;5048903;28;20214;-66
2023/06/03 00:02:44;;;;;;;3.43;1.97;;;9.50;99.90;;;;;;5047733;28;20181;-67
2023/06/03 00:05:09;;;;;;;1.93;1.17;;;9.50;99.90;;;;;;5045904;28;20532;-66
2023/06/03 00:07:35;;;;;;;2.27;1.47;;;9.40;99.90;;;;;;5052841;28;20175;-66
2023/06/03 00:10:01;;;;;;;5.70;1.80;;;9.40;99.90;;;;;;5049008;28;20567;-67
2023/06/03 00:12:26;;;;;;;5.33;4.93;;;9.40;99.90;;;;;;5051212;28;20180;-69
2023/06/03 00:14:52;;;;;;;1.57;1.10;;;9.30;99.90;;;;;;5046380;28;20597;-66
2023/06/03 00:17:21;;;;;;;2.90;1.10;;;9.20;99.90;;;;;;5053606;28;20206;-68
2023/06/03 00:19:48;;;;;;;3.10;1.90;;;9.20;99.90;;;;;;5041991;28;20602;-68
2023/06/03 00:22:14;;;;;;;1.50;1.40;;;9.20;99.90;;;;;;5053704;28;20464;-67
2023/06/03 00:24:40;;;;;;;1.83;1.20;;;9.20;99.90;;;;;;5040136;28;20457;-70
2023/06/03 00:27:05;;;;;;;3.20;1.30;;;9.20;99.90;;;;;;5049235;28;20172;-68
2023/06/03 00:29:34;;;;;;;2.60;1.47;;;9.10;99.90;;;;;;5051677;28;20214;-67
2023/06/03 00:32:00;;;;;;;1.90;1.00;;;9.10;99.90;;;;;;5051486;28;20178;-67
2023/06/03 00:34:26;;;;;;;2.10;1.30;;;9.10;99.90;;;;;;5052075;28;20416;-68
2023/06/03 00:36:51;;;;;;;1.90;1.63;;;9.10;99.90;;;;;;5053563;28;20254;-68
2023/06/03 00:39:17;;;;;;;2.63;2.43;;;9.00;99.90;;;;;;5043763;28;20855;-66
2023/06/03 00:41:42;;;;;;;3.07;1.63;;;8.90;99.90;;;;;;5051594;28;20190;-66
2023/06/03 00:44:08;;;;;;;2.20;1.10;;;8.90;99.90;;;;;;5051349;28;20377;-68
2023/06/03 00:46:35;;;;;;;1.40;1.30;;;8.90;99.90;;;;;;5047903;28;20634;-67
2023/06/03 00:49:01;;;;;;;1.77;1.30;;;8.90;99.90;;;;;;5052502;28;20199;-67
2023/06/03 00:51:27;;;;;;;1.33;1.23;;;8.90;99.90;;;;;;5050528;28;20405;-66
2023/06/03 00:53:53;;;;;;;3.07;1.53;;;8.80;99.90;;;;;;5048758;28;20410;-69
2023/06/03 00:56:19;;;;;;;8.03;1.93;;;8.80;99.90;;;;;;5053095;28;20270;-67
2023/06/03 00:58:45;;;;;;;4.53;1.50;;;8.80;99.90;;;;;;5052934;28;20680;-67
2023/06/03 01:01:12;;;;;;;1.40;1.30;;;8.70;99.90;;;;;;5052787;28;20422;-67
2023/06/03 01:03:45;;;;;;;1.33;1.23;;;8.80;99.90;;;;;;5034984;28;20496;-68
2023/06/03 01:06:45;;;;;;;2.13;1.53;;;8.70;99.90;;;;;;5050808;28;20461;-67
2023/06/03 01:09:22;;;;;;;2.60;1.37;;;8.60;99.90;;;;;;5023680;28;20479;-67
2023/06/03 01:12:00;;;;;;;2.40;1.73;;;8.60;99.90;;;;;;5031444;28;20444;-67
2023/06/03 01:14:39;;;;;;;2.73;1.43;;;8.50;99.90;;;;;;5046100;28;20508;-67
2023/06/03 01:17:09;;;;;;;2.40;1.30;;;8.50;99.90;;;;;;5049424;28;20417;-68
2023/06/03 01:19:48;;;;;;;1.40;1.30;;;8.40;99.90;;;;;;5041695;28;20459;-67
2023/06/03 01:22:24;;;;;;;2.10;1.83;;;8.40;99.90;;;;;;5052440;28;20445;-67
2023/06/03 01:24:50;;;;;;;1.63;1.43;;;8.40;99.90;;;;;;5051938;28;20452;-66
2023/06/03 01:27:17;;;;;;;1.33;1.23;;;8.40;99.90;;;;;;5052267;28;20418;-67
2023/06/03 01:29:46;;;;;;;2.73;1.33;;;8.40;99.90;;;;;;5049459;28;20490;-67
2023/06/03 01:32:16;;;;;;;1.53;1.37;;;8.30;99.90;;;;;;5053607;28;20784;-67
2023/06/03 01:34:43;;;;;;;1.60;1.27;;;8.30;99.90;;;;;;5032147;28;20418;-68
2023/06/03 01:37:10;;;;;;;7.87;1.73;;;8.30;99.90;;;;;;5052064;28;20425;-68
2023/06/03 01:39:40;;;;;;;1.50;1.40;;;8.30;99.90;;;;;;5047768;28;20844;-67
2023/06/03 01:42:13;;;;;;;1.73;1.63;;;8.20;99.90;;;;;;5050994;28;20456;-67
2023/06/03 01:44:40;;;;;;;1.33;1.23;;;8.20;99.90;;;;;;5052453;28;20491;-67
2023/06/03 01:47:06;;;;;;;1.37;1.27;;;8.20;99.90;;;;;;5050626;28;20419;-66
2023/06/03 01:49:31;;;;;;;6.00;2.17;;;8.10;99.90;;;;;;5045534;28;20460;-68
2023/06/03 01:52:00;;;;;;;2.37;1.47;;;8.00;99.90;;;;;;5050516;28;20421;-66
2023/06/03 01:54:27;;;;;;;1.50;1.40;;;8.10;99.90;;;;;;5049763;28;20713;-67
2023/06/03 01:56:54;;;;;;;3.27;1.67;;;8.00;99.90;;;;;;5050832;28;20563;-67
2023/06/03 01:59:24;;;;;;;2.10;1.33;;;8.00;99.90;;;;;;5044493;28;20469;-66
2023/06/03 02:01:53;;;;;;;1.80;1.60;;;8.00;99.90;;;;;;5045417;28;20477;-66
2023/06/03 02:04:19;;;;;;;1.67;1.30;;;7.90;99.90;;;;;;5048393;28;20464;-67
2023/06/03 02:06:50;;;;;;;1.77;1.50;;;7.90;99.90;;;;;;5042005;28;20780;-66
2023/06/03 02:09:16;;;;;;;1.60;1.20;;;7.90;99.90;;;;;;5041275;28;20452;-67
2023/06/03 02:11:44;;;;;;;1.67;1.30;;;7.90;99.90;;;;;;5047627;28;20462;-65
2023/06/03 02:14:11;;;;;;;1.53;1.00;;;7.80;99.90;;;;;;5050896;28;20907;-65
2023/06/03 02:16:37;;;;;;;2.67;1.33;;;7.80;99.90;;;;;;5048569;28;20787;-66
2023/06/03 02:19:14;;;;;;;1.63;1.27;;;7.80;99.90;;;;;;5046251;28;20433;-69
2023/06/03 02:21:41;;;;;;;2.67;1.27;;;7.80;99.90;;;;;;5049793;28;20295;-66
2023/06/03 02:24:08;;;;;;;2.10;1.47;;;7.80;99.90;;;;;;5048920;28;20435;-67
2023/06/03 02:26:34;;;;;;;1.73;1.57;;;7.80;99.90;;;;;;5049387;28;20430;-66
2023/06/03 02:29:00;;;;;;;1.43;1.20;;;7.70;99.90;;;;;;5047612;28;20464;-67
2023/06/03 02:31:25;;;;;;;1.37;1.27;;;7.80;99.90;;;;;;5043415;28;20199;-67
2023/06/03 02:33:51;;;;;;;3.00;1.43;;;7.70;99.90;;;;;;5047312;28;20186;-68
2023/06/03 02:36:18;;;;;;;1.47;0.97;;;7.70;99.90;;;;;;5049546;28;20171;-66
2023/06/03 02:38:44;;;;;;;2.17;1.10;;;7.70;99.90;;;;;;5042264;28;20206;-67
2023/06/03 02:41:10;;;;;;;1.23;1.13;;;7.60;99.90;;;;;;5048071;28;20472;-66
2023/06/03 02:43:35;;;;;;;1.43;1.33;;;7.60;99.90;;;;;;5035628;28;20820;-68
2023/06/03 02:46:01;;;;;;;1.97;1.40;;;7.70;99.90;;;;;;5047887;28;20260;-66
2023/06/03 02:48:27;;;;;;;1.43;1.30;;;7.70;99.90;;;;;;5049020;28;20202;-66
2023/06/03 02:50:53;;;;;;;1.40;1.00;;;7.70;99.90;;;;;;5043627;28;20410;-66
2023/06/03 02:53:19;;;;;;;1.87;1.27;;;7.70;99.90;;;;;;5049396;28;20170;-67
2023/06/03 02:55:45;;;;;;;1.20;1.13;;;7.70;99.90;;;;;;5046100;28;20541;-66
2023/06/03 02:58:15;;;;;;;1.20;1.10;;;7.70;99.90;;;;;;5048937;28;20677;-65
2023/06/03 03:00:42;;;;;;;1.90;1.20;;;7.70;99.90;;;;;;5044938;28;20522;-66
2023/06/03 03:03:09;;;;;;;1.27;1.17;;;7.70;99.90;;;;;;5050389;28;20413;-66
2023/06/03 03:05:35;;;;;;;1.20;1.10;;;7.70;99.90;;;;;;5049452;28;20449;-66
2023/06/03 03:08:01;;;;;;;2.07;1.00;;;7.70;99.90;;;;;;5047015;28;20452;-67
2023/06/03 03:10:27;;;;;;;1.23;1.10;;;7.70;99.90;;;;;;5048736;28;20418;-66
2023/06/03 03:12:52;;;;;;;2.00;1.40;;;7.70;99.90;;;;;;5042610;28;20517;-68
2023/06/03 03:15:18;;;;;;;5.07;1.53;;;7.70;99.90;;;;;;5046352;28;20179;-66
2023/06/03 03:17:44;;;;;;;1.20;1.10;;;7.70;99.90;;;;;;5044699;28;20266;-65
2023/06/03 03:20:10;;;;;;;5.80;1.53;;;7.70;99.90;;;;;;5047385;28;20276;-66
2023/06/03 03:22:40;;;;;;;1.77;1.17;;;7.80;99.90;;;;;;5048957;28;20421;-67
2023/06/03 03:25:06;;;;;;;1.20;1.10;;;7.80;99.90;;;;;;5044844;28;20565;-67
2023/06/03 03:27:32;;;;;;;2.53;1.33;;;7.80;99.90;;;;;;5037918;28;20533;-67
2023/06/03 03:30:01;;;;;;;2.43;1.50;;;7.80;99.90;;;;;;5049886;28;20512;-65
2023/06/03 03:32:26;;;;;;;1.37;1.00;;;7.80;99.90;;;;;;5047315;28;20514;-67
2023/06/03 03:35:12;;;;;;;1.47;1.30;;;7.90;99.90;;;;;;5046448;28;20428;-67
2023/06/03 03:37:38;;;;;;;1.80;1.20;;;7.90;99.90;;;;;;5047232;28;20252;-65
2023/06/03 03:40:10;;;;;;;1.47;1.13;;;7.90;99.90;;;;;;5049343;28;20938;-66
2023/06/03 03:42:35;;;;;;;1.73;1.50;;;8.00;99.90;;;;;;5052722;28;20777;-66
2023/06/03 03:45:06;;;;;;;3.03;1.27;;;8.00;99.90;;;;;;5052333;28;20463;-69
2023/06/03 03:47:33;;;;;;;1.70;1.27;;;8.00;99.90;;;;;;5052299;28;20175;-67
2023/06/03 03:50:00;;;;;;;2.80;1.20;;;8.00;99.90;;;;;;5049001;28;20986;-66
2023/06/03 03:52:30;;;;;;;1.00;0.90;;;8.10;99.90;;;;;;5053866;28;20493;-67
2023/06/03 03:55:00;;;;;;;1.83;1.43;;;8.10;99.90;;;;;;5049281;28;20495;-66
2023/06/03 03:57:25;;;;;;;2.90;1.20;;;8.20;99.90;;;;;;5053606;28;20413;-68
2023/06/03 03:59:53;;;;;;;2.40;1.40;;;8.20;99.90;;;;;;5049085;28;20434;-66
2023/06/03 04:02:20;;;;;;;1.30;1.20;;;8.30;99.90;;;;;;5044636;28;20646;-68
2023/06/03 04:04:46;;;;;;;1.83;1.13;;;8.20;99.90;;;;;;5053437;28;20475;-68
2023/06/03 04:07:21;;;;;;;1.33;1.20;;;8.30;99.90;;;;;;5049845;28;20493;-69
2023/06/03 04:09:47;;;;;;;1.93;1.30;;;8.40;99.90;;;;;;5045699;28;20429;-67
2023/06/03 04:12:20;;;;;;;1.53;1.27;;;8.40;99.90;;;;;;5049087;28;20451;-67
2023/06/03 04:14:51;;;;;;;2.20;0.97;;;8.50;99.90;;;;;;5046209;28;20448;-70
2023/06/03 04:17:21;;;;;;;1.37;1.20;;;8.60;99.90;;;;;;5047502;28;20498;-68
2023/06/03 04:19:48;;;;;;;1.30;1.10;;;9.30;99.90;;;;;;5052907;28;20466;-68
2023/06/03 04:22:21;;;;;;;1.30;1.20;;;10.70;99.90;;;;;;5053508;28;20422;-67
2023/06/03 04:24:57;;;;;;;3.57;1.20;;;11.80;99.50;;;;;;5050723;28;20466;-69
2023/06/03 04:27:24;;;;;;;3.43;1.40;;;12.40;97.50;;;;;;5038540;28;20437;-69
2023/06/03 04:29:50;;;;;;;1.60;1.50;;;12.80;96.50;;;;;;5053229;28;20849;-67
2023/06/03 04:32:15;;;;;;;1.30;1.20;;;13.10;95.20;;;;;;5052070;28;20406;-67
2023/06/03 04:34:52;;;;;;;1.43;1.00;;;13.10;94.20;;;;;;5048430;28;20448;-67
2023/06/03 04:37:18;;;;;;;2.87;1.10;;;13.40;94.80;;;;;;5052995;28;20179;-68
2023/06/03 04:39:44;;;;;;;2.10;1.87;;;13.20;93.60;;;;;;5046948;28;20445;-66
2023/06/03 04:42:12;;;;;;;1.80;1.33;;;13.20;93.60;;;;;;5051774;28;20516;-67
2023/06/03 04:44:38;;;;;;;2.20;1.27;;;12.50;94.00;;;;;;5050025;28;20302;-67
2023/06/03 04:47:05;;;;;;;1.70;1.17;;;12.20;94.40;;;;;;5045935;28;20417;-67
2023/06/03 04:49:34;;;;;;;1.30;1.00;;;12.00;94.80;;;;;;5049693;28;20616;-68
2023/06/03 04:52:01;;;;;;;1.90;1.00;;;11.80;95.10;;;;;;5047827;28;20855;-68
2023/06/03 04:54:26;;;;;;;1.60;1.10;;;11.60;95.60;;;;;;5050070;28;20496;-66
2023/06/03 04:56:52;;;;;;;1.87;1.10;;;11.60;95.80;;;;;;5047439;28;20881;-66
2023/06/03 04:59:18;;;;;;;1.63;1.27;;;12.00;95.90;;;;;;5052717;28;20247;-68
2023/06/03 05:01:44;;;;;;;1.97;1.30;;;12.40;94.90;;;;;;5044515;28;20191;-69
2023/06/03 05:04:13;;;;;;;1.53;1.10;;;12.60;94.20;;;;;;5052202;28;20202;-67
2023/06/03 05:06:39;;;;;;;2.17;1.23;;;12.80;94.40;;;;;;5049350;28;20419;-66
2023/06/03 05:09:05;;;;;;;1.40;1.27;;;13.00;94.30;;;;;;5049703;28;20426;-69
2023/06/03 05:11:31;;;;;;;2.00;1.47;;;13.20;93.60;;;;;;5051906;28;20436;-65
2023/06/03 05:13:57;;;;;;;1.73;1.60;;;13.00;93.00;;;;;;5052420;28;20904;-69
2023/06/03 05:16:23;;;;;;;1.60;1.20;;;13.20;93.10;;;;;;5051837;28;20546;-68
2023/06/03 05:18:49;;;;;;;1.50;1.13;;;13.80;93.20;;;;;;5044070;28;20471;-66
2023/06/03 05:21:19;;;;;;;3.70;1.40;;;14.10;91.90;;;;;;5051906;28;20178;-67
2023/06/03 05:23:45;;;;;;;1.60;1.40;;;14.20;91.60;;;;;;5052646;28;20170;-69
2023/06/03 05:26:10;;;;;;;2.03;1.40;;;14.10;91.10;;;;;;5051050;28;20474;-68
2023/06/03 05:28:36;;;;;;;2.07;1.23;;;14.00;91.00;;;;;;5049242;28;20979;-66
2023/06/03 05:31:01;;;;;;;1.77;1.30;;;13.90;91.80;;;;;;5052205;28;20269;-72
2023/06/03 05:33:29;;;;;;;2.30;1.20;;;13.80;91.10;;;;;;5047369;28;20177;-66
2023/06/03 05:35:55;;;;;;;3.40;1.40;;;13.40;92.00;;;;;;5050993;28;20190;-67
2023/06/03 05:38:21;;;;;;;2.03;1.33;;;13.30;91.90;;;;;;5051676;28;20510;-67
2023/06/03 05:40:48;;;;;;;2.30;1.53;;;13.70;92.30;;;;;;5049969;28;20426;-67
2023/06/03 05:43:15;;;;;;;2.30;1.70;;;14.00;91.80;;;;;;5049174;28;20439;-66
2023/06/03 05:45:41;;;;;;;2.57;1.33;;;13.90;91.30;;;;;;5047436;28;20581;-69
2023/06/03 05:48:07;;;;;;;1.77;1.57;;;14.00;91.10;;;;;;5051453;28;20537;-67
2023/06/03 05:50:37;;;;;;;6.20;1.67;;;14.40;91.00;;;;;;5048256;28;20416;-67
2023/06/03 05:53:03;;;;;;;2.13;1.77;;;14.40;91.10;;;;;;5050670;28;20171;-67
2023/06/03 05:55:29;;;;;;;5.13;2.07;;;14.90;90.00;;;;;;5047069;28;20428;-67
2023/06/03 05:57:55;;;;;;;1.83;1.33;;;15.10;89.80;;;;;;5050192;28;20273;-67
2023/06/03 06:00:21;;;;;;;1.93;1.57;;;15.40;89.20;;;;;;5035350;28;20980;-68
2023/06/03 06:02:47;;;;;;;2.73;1.73;;;15.50;89.50;;;;;;5048658;28;20465;-66
2023/06/03 06:05:13;;;;;;;2.50;1.50;;;16.30;87.10;;;;;;5050864;28;20206;-66
2023/06/03 06:07:39;;;;;;;1.93;1.27;;;16.50;84.70;;;;;;5047593;28;21118;-67
2023/06/03 06:10:06;;;;;;;3.73;1.53;;;17.30;83.60;;;;;;5051607;28;20490;-68
2023/06/03 06:12:32;;;;;;;4.30;2.20;;;17.30;79.50;;;;;;5045331;28;20773;-67
2023/06/03 06:14:57;;;;;;;1.93;1.73;;;17.50;78.90;;;;;;5046114;28;20436;-66
2023/06/03 06:17:23;;;;;;;1.87;1.33;;;17.80;78.80;;;;;;5045662;28;20185;-67
2023/06/03 06:19:49;;;;;;;3.37;1.63;;;17.50;77.80;;;;;;5048877;28;20565;-68
2023/06/03 06:22:14;;;;;;;1.73;1.00;;;17.20;78.90;;;;;;5041527;28;20928;-68
2023/06/03 06:24:41;;;;;;;2.23;1.53;;;18.10;77.90;;;;;;5049253;28;20210;-69
2023/06/03 06:27:07;;;;;;;2.57;1.50;;;18.60;77.10;;;;;;5046071;28;20176;-68
2023/06/03 06:29:33;;;;;;;1.83;1.40;;;18.80;74.90;;;;;;5048795;28;20507;-69
2023/06/03 06:31:59;;;;;;;3.40;1.70;;;19.50;71.80;;;;;;5048379;28;20942;-69
2023/06/03 06:34:29;;;;;;;2.50;1.63;;;19.80;71.70;;;;;;5048805;28;20518;-69
2023/06/03 06:36:56;;;;;;;2.17;1.60;;;19.90;68.90;;;;;;5051295;28;20789;-68
2023/06/03 06:40:07;;;;;;;2.80;1.30;;;20.00;69.60;;;;;;5046195;28;20442;-68
2023/06/03 06:42:35;;;;;;;2.80;1.47;;;20.20;66.80;;;;;;5029228;28;20588;-69
2023/06/03 06:45:27;;;;;;;4.33;1.80;;;19.30;68.90;;;;;;5044002;28;20465;-68
2023/06/03 06:48:02;;;;;;;1.40;1.10;;;18.60;72.10;;;;;;5042227;28;20444;-68
2023/06/03 06:50:32;;;;;;;2.63;1.47;;;20.00;68.40;;;;;;5043775;28;20921;-69
2023/06/03 06:52:57;;;;;;;2.20;1.50;;;20.40;66.60;;;;;;5049620;28;20424;-68
2023/06/03 06:55:56;;;;;;;4.03;1.63;;;19.70;67.20;;;;;;5036871;28;20409;-70
2023/06/03 06:58:24;;;;;;;2.70;1.93;;;20.10;66.50;;;;;;5048287;28;20218;-69
2023/06/03 07:00:50;;;;;;;3.10;1.40;;;19.60;65.80;;;;;;5046050;28;20427;-68
2023/06/03 07:03:17;;;;;;;2.30;1.40;;;20.40;64.10;;;;;;5049362;28;20518;-68
2023/06/03 07:05:46;;;;;;;1.37;1.27;;;20.60;63.00;;;;;;5047429;28;20957;-69
2023/06/03 07:08:12;;;;;;;4.63;1.67;;;20.10;65.20;;;;;;5050904;28;20452;-69
2023/06/03 07:10:38;;;;;;;9.00;1.70;;;20.00;68.90;;;;;;5050880;28;20416;-67
2023/06/03 07:13:06;;;;;;;2.10;1.50;;;21.20;65.10;;;;;;5046656;28;20409;-68
2023/06/03 07:15:32;;;;;;;2.20;1.77;;;21.30;63.00;;;;;;5050713;28;20432;-68
2023/06/03 07:17:58;;;;;;;2.03;1.63;;;21.90;62.10;;;;;;5048639;28;20794;-67
2023/06/03 07:20:35;;;;;;;2.10;1.50;;;22.50;60.70;;;;;;5050400;28;20235;-68
2023/06/03 07:23:07;;;;;;;2.30;1.50;;;22.70;58.90;;;;;;5048678;28;20315;-67
2023/06/03 07:25:37;;;;;;;3.30;1.80;;;22.10;59.20;;;;;;5048862;28;20460;-68
2023/06/03 07:28:07;;;;;;;3.40;1.70;;;21.90;58.60;;;;;;5045664;28;20457;-70
2023/06/03 07:30:35;;;;;;;2.20;1.37;;;21.40;61.20;;;;;;5048704;28;20425;-69
2023/06/03 07:33:02;;;;;;;3.83;1.60;;;22.40;59.70;;;;;;5040812;28;20785;-69
2023/06/03 07:35:28;;;;;;;2.83;1.43;;;22.40;59.10;;;;;;5049002;28;20417;-69
2023/06/03 07:37:55;;;;;;;3.13;1.20;;;22.80;59.00;;;;;;5045890;28;20441;-67
2023/06/03 07:40:42;;;;;;;2.87;1.80;;;22.60;58.20;;;;;;5046998;28;20416;-69
2023/06/03 07:43:09;;;;;;;2.60;1.43;;;22.90;57.70;;;;;;5045220;28;20425;-70
2023/06/03 07:45:35;;;;;;;2.57;1.57;;;23.00;57.20;;;;;;5044804;28;20468;-69
2023/06/03 07:48:03;;;;;;;2.70;1.60;;;21.90;57.90;;;;;;5049856;28;20429;-68
2023/06/03 07:50:29;;;;;;;3.10;1.40;;;22.60;57.10;;;;;;5044588;28;20430;-69
2023/06/03 07:53:07;;;;;;;1.97;1.60;;;23.30;56.90;;;;;;5047288;28;20441;-68
2023/06/03 07:55:44;;;;;;;1.93;1.30;;;22.50;56.90;;;;;;5045459;28;20965;-70
2023/06/03 07:58:10;;;;;;;2.07;1.60;;;22.30;56.60;;;;;;5047968;28;20429;-67
2023/06/03 08:00:49;;;;;;;4.53;1.77;;;21.00;58.40;;;;;;5044377;28;20828;-69
2023/06/03 08:03:18;;;;;;;3.63;1.50;;;22.50;56.30;;;;;;5046970;28;20504;-69
2023/06/03 08:05:47;;;;;;;1.93;1.30;;;23.00;55.40;;;;;;5048915;28;20510;-69
2023/06/03 08:08:14;;;;;;;2.87;1.60;;;23.50;55.30;;;;;;5038182;28;20453;-69
2023/06/03 08:10:40;;;;;;;2.60;1.20;;;23.40;55.00;;;;;;5049041;28;20440;-68
2023/06/03 08:13:05;;;;;;;3.07;1.37;;;23.40;53.90;;;;;;5045251;28;20405;-69
2023/06/03 08:15:35;;;;;;;1.90;1.30;;;22.80;55.50;;;;;;5047389;28;20420;-70
2023/06/03 08:18:05;;;;;;;2.27;1.30;;;23.70;53.50;;;;;;5042795;28;20206;-70
2023/06/03 08:20:34;;;;;;;2.00;1.33;;;22.70;53.40;;;;;;5046385;28;20421;-68
2023/06/03 08:22:59;;;;;;;2.07;1.43;;;22.30;54.40;;;;;;5047625;28;20781;-68
2023/06/03 08:25:25;;;;;;;2.77;1.10;;;22.80;54.90;;;;;;5048436;28;20817;-69
2023/06/03 08:27:51;;;;;;;5.27;1.07;;;23.20;54.20;;;;;;5046432;28;20202;-70
2023/06/03 08:30:18;;;;;;;2.63;1.70;;;22.90;54.60;;;;;;5052711;28;20402;-69
2023/06/03 08:32:44;;;;;;;2.13;1.20;;;22.60;53.00;;;;;;5049462;28;20722;-69
2023/06/03 08:35:11;;;;;;;1.20;0.93;;;23.10;51.90;;;;;;5050251;28;20417;-67
2023/06/03 08:37:37;;;;;;;1.40;1.10;;;23.20;53.30;;;;;;5050354;28;20440;-67
2023/06/03 08:40:14;;;;;;;3.03;1.30;;;23.20;52.30;;;;;;5049203;28;20413;-68
2023/06/03 08:42:45;;;;;;;2.70;1.47;;;23.00;53.50;;;;;;5049843;28;20401;-68
2023/06/03 08:45:16;;;;;;;1.30;1.20;;;22.30;54.50;;;;;;5049721;28;20868;-68
2023/06/03 08:48:00;;;;;;;2.50;1.43;;;21.80;55.30;;;;;;5052496;28;20493;-69
2023/06/03 08:50:27;;;;;;;7.17;2.10;;;22.90;53.50;;;;;;5049266;28;20456;-69
2023/06/03 08:52:54;;;;;;;1.30;1.17;;;23.30;53.70;;;;;;5049852;28;20460;-69
2023/06/03 08:55:21;;;;;;;1.47;1.20;;;21.70;55.90;;;;;;5048127;28;20420;-70
2023/06/03 08:58:08;;;;;;;2.10;1.13;;;23.40;54.50;;;;;;5050716;28;20778;-70
2023/06/03 09:00:34;;;;;;;1.50;1.20;;;22.80;54.00;;;;;;5047364;28;20405;-70
2023/06/03 09:03:01;;;;;;;2.33;1.50;;;24.20;52.80;;;;;;5049881;28;20413;-68
2023/06/03 09:05:27;;;;;;;6.40;1.20;;;23.70;53.10;;;;;;5051961;28;20873;-66
2023/06/03 09:07:53;;;;;;;3.00;1.57;;;24.60;51.00;;;;;;5045854;28;20517;-69
2023/06/03 09:10:21;;;;;;;1.40;1.23;;;24.60;51.70;;;;;;5047048;28;20216;-67
2023/06/03 09:12:47;;;;;;;2.80;1.50;;;25.00;49.80;;;;;;5047942;28;20416;-68
2023/06/03 09:15:14;;;;;;;2.33;1.20;;;25.40;50.50;;;;;;5050138;28;20444;-68
2023/06/03 09:17:41;;;;;;;1.33;1.10;;;24.90;49.60;;;;;;5047159;28;20414;-67
2023/06/03 09:20:08;;;;;;;1.40;1.30;;;24.10;51.60;;;;;;5049381;28;20406;-68
2023/06/03 09:22:35;;;;;;;2.90;1.70;;;23.80;51.60;;;;;;5050049;28;20771;-68
2023/06/03 09:25:02;;;;;;;1.80;1.40;;;24.60;49.70;;;;;;5046014;28;20489;-69
2023/06/03 09:27:27;;;;;;;1.20;1.10;;;24.70;49.60;;;;;;5048943;28;20505;-67
2023/06/03 09:29:54;;;;;;;2.27;1.50;;;24.50;48.70;;;;;;5050444;28;20553;-71
2023/06/03 09:32:20;;;;;;;2.77;1.60;;;24.30;49.10;;;;;;5051999;28;20208;-68
2023/06/03 09:34:46;;;;;;;2.60;1.27;;;22.20;52.00;;;;;;5046435;28;20437;-67
2023/06/03 09:37:12;;;;;;;3.60;1.70;;;22.00;52.30;;;;;;5044962;28;20505;-68
2023/06/03 09:39:38;;;;;;;2.13;1.40;;;23.10;51.30;;;;;;5044392;28;20437;-68
2023/06/03 09:42:05;;;;;;;1.73;1.20;;;23.60;50.10;;;;;;5050408;28;20952;-68
2023/06/03 09:45:00;;;;;;;1.80;1.50;;;24.10;51.20;;;;;;5045249;28;20568;-68
2023/06/03 09:47:35;;;;;;;2.10;1.30;;;24.00;50.50;;;;;;5029578;28;20463;-68
2023/06/03 09:50:06;;;;;;;1.20;1.10;;;23.60;49.40;;;;;;5047066;28;21007;-67
2023/06/03 09:52:36;;;;;;;3.97;1.50;;;23.90;49.30;;;;;;5046183;28;20422;-68
2023/06/03 09:55:09;;;;;;;1.67;1.00;;;24.50;49.50;;;;;;5046924;28;20414;-68
2023/06/03 09:57:37;;;;;;;1.67;1.20;;;24.20;49.50;;;;;;5049223;28;20404;-68
2023/06/03 10:00:07;;;;;;;2.77;1.90;;;24.40;47.80;;;;;;5044740;28;20955;-68
2023/06/03 10:02:42;;;;;;;4.33;1.40;;;23.50;47.40;;;;;;5048282;28;20452;-68
2023/06/03 10:05:27;;;;;;;4.23;1.50;;;22.90;49.00;;;;;;5051361;28;20460;-68
2023/06/03 10:07:53;;;;;;;1.30;1.20;;;21.70;49.00;;;;;;5044649;28;20429;-68
2023/06/03 10:10:19;;;;;;;4.40;1.70;;;21.00;50.00;;;;;;5047364;28;20550;-67
2023/06/03 10:12:46;;;;;;;11.33;4.03;;;20.80;50.70;;;;;;5046890;28;20185;-67
2023/06/03 10:15:12;;;;;;;2.80;1.50;;;20.90;51.20;;;;;;5049961;28;20421;-69
2023/06/03 10:17:45;;;;;;;1.50;1.30;;;20.60;51.10;;;;;;5046011;28;20497;-69
2023/06/03 10:20:11;;;;;;;1.30;1.00;;;20.40;51.40;;;;;;5048231;28;20288;-68
2023/06/03 10:22:42;;;;;;;3.63;1.90;;;20.10;54.50;;;;;;5049049;28;20831;-67
2023/06/03 10:25:09;;;;;;;2.63;1.20;;;19.80;52.90;;;;;;5050785;28;20202;-67
2023/06/03 10:27:36;;;;;;;1.50;1.20;;;19.90;52.40;;;;;;5046852;28;20423;-68
2023/06/03 10:30:03;;;;;;;2.03;1.37;;;19.70;52.10;;;;;;5048387;28;20419;-68
2023/06/03 10:32:29;;;;;;;2.40;1.20;;;20.00;52.00;;;;;;5050509;28;20421;-68
2023/06/03 10:34:59;;;;;;;2.00;1.10;;;19.90;50.70;;;;;;5044473;28;20418;-69
2023/06/03 10:37:25;;;;;;;9.07;2.10;;;20.10;51.20;;;;;;5048815;28;20409;-69
2023/06/03 10:39:53;;;;;;;5.50;1.57;;;20.00;52.40;;;;;;5046689;28;20440;-69
2023/06/03 10:42:19;;;;;;;1.97;1.43;;;20.30;51.90;;;;;;5048427;28;20412;-67
2023/06/03 10:44:45;;;;;;;1.47;1.10;;;20.50;51.70;;;;;;5047906;28;20596;-71
2023/06/03 10:47:24;;;;;;;3.30;1.30;;;20.10;51.40;;;;;;5046590;28;20587;-68
2023/06/03 10:50:10;;;;;;;2.70;1.30;;;20.00;52.00;;;;;;5048992;28;20255;-69
2023/06/03 10:52:47;;;;;;;2.00;1.47;;;19.80;52.20;;;;;;5041750;28;20419;-69
2023/06/03 10:55:28;;;;;;;3.90;1.60;;;19.60;52.60;;;;;;5046267;28;20405;-68
2023/06/03 10:58:03;;;;;;;1.93;1.60;;;19.60;52.60;;;;;;5042447;28;20517;-68
2023/06/03 11:00:51;;;;;;;1.63;1.47;;;19.40;52.80;;;;;;5049390;28;20406;-68
2023/06/03 11:03:18;;;;;;;1.70;1.60;;;19.50;52.50;;;;;;5049126;28;20461;-69
2023/06/03 11:05:45;;;;;;;1.93;1.30;;;19.60;52.60;;;;;;5049063;28;20456;-70
2023/06/03 11:08:11;;;;;;;1.37;1.20;;;19.30;52.60;;;;;;5046164;28;20879;-69
2023/06/03 11:10:36;;;;;;;1.67;1.47;;;19.30;52.70;;;;;;5047963;28;20401;-66
2023/06/03 11:13:06;;;;;;;2.20;1.43;;;19.10;54.20;;;;;;5051182;28;20419;-69
2023/06/03 11:16:00;;;;;;;3.53;1.10;;;19.60;54.20;;;;;;5046952;28;20254;-68
2023/06/03 11:18:30;;;;;;;1.33;1.17;;;19.50;53.30;;;;;;5048378;28;20444;-69
2023/06/03 11:20:56;;;;;;;2.20;0.83;;;19.40;53.00;;;;;;5046564;28;20470;-69
2023/06/03 11:23:45;;;;;;;2.10;1.50;;;19.70;52.90;;;;;;5048853;28;20408;-68
2023/06/03 11:26:33;;;;;;;2.63;1.30;;;19.90;53.60;;;;;;5045079;28;20486;-66
2023/06/03 11:29:00;;;;;;;3.70;1.40;;;19.80;52.70;;;;;;5043744;28;20453;-68
2023/06/03 11:31:27;;;;;;;2.33;1.27;;;19.80;52.50;;;;;;5050150;28;20929;-67
2023/06/03 11:34:14;;;;;;;5.23;1.53;;;19.60;53.60;;;;;;5045372;28;20426;-68
2023/06/03 11:36:50;;;;;;;1.50;1.20;;;19.70;53.20;;;;;;5048971;28;20402;-69
2023/06/03 11:39:16;;;;;;;2.17;1.10;;;19.50;53.10;;;;;;5046153;28;20464;-69
2023/06/03 11:42:06;;;;;;;2.23;1.63;;;19.60;53.60;;;;;;5048301;28;20409;-69
2023/06/03 11:44:32;;;;;;;4.43;1.40;;;19.80;53.70;;;;;;5046390;28;20645;-70
2023/06/03 11:46:58;;;;;;;2.17;1.93;;;19.30;53.90;;;;;;5049838;28;20476;-69
2023/06/03 11:49:24;;;;;;;2.80;1.40;;;19.50;53.60;;;;;;5049433;28;20426;-69
2023/06/03 11:51:55;;;;;;;2.17;1.40;;;19.60;53.60;;;;;;5043306;28;20193;-68
2023/06/03 11:54:21;;;;;;;1.90;1.17;;;19.50;52.60;;;;;;5042039;28;20441;-69
2023/06/03 11:56:49;;;;;;;2.20;0.93;;;19.30;52.90;;;;;;5054451;28;20914;-69
2023/06/03 11:59:17;;;;;;;1.40;1.10;;;19.30;53.10;;;;;;5050045;28;20285;-68
2023/06/03 12:01:56;;;;;;;1.60;1.20;;;19.20;53.40;;;;;;5045955;28;20892;-69
2023/06/03 12:04:22;;;;;;;1.67;1.57;;;19.20;53.00;;;;;;5053587;28;20413;-70
2023/06/03 12:06:48;;;;;;;1.73;1.60;;;19.30;53.00;;;;;;5050571;28;20429;-69
2023/06/03 12:09:20;;;;;;;3.63;1.60;;;19.70;53.30;;;;;;5052567;28;20966;-68
2023/06/03 12:11:46;;;;;;;2.93;1.73;;;20.00;53.20;;;;;;5047521;28;20613;-68
2023/06/03 12:14:33;;;;;;;2.20;1.50;;;19.80;52.60;;;;;;5051275;28;20830;-69
2023/06/03 12:17:09;;;;;;;10.40;1.53;;;19.70;52.20;;;;;;5048561;28;20516;-66
2023/06/03 12:19:46;;;;;;;1.83;1.20;;;19.60;53.20;;;;;;5051099;28;20488;-69
2023/06/03 12:22:13;;;;;;;1.97;1.20;;;19.90;53.30;;;;;;5053616;28;20492;-70
2023/06/03 12:24:43;;;;;;;4.53;1.20;;;19.80;53.20;;;;;;5050928;28;20476;-67
2023/06/03 12:27:21;;;;;;;2.80;1.97;;;19.80;52.70;;;;;;5047124;28;20438;-69
2023/06/03 12:29:50;;;;;;;4.93;1.07;;;19.50;53.90;;;;;;5050827;28;20587;-68
2023/06/03 12:32:16;;;;;;;2.80;1.63;;;19.60;53.50;;;;;;5053369;28;20419;-68
2023/06/03 12:34:44;;;;;;;1.83;1.00;;;19.70;53.90;;;;;;5048547;28;20521;-69
2023/06/03 12:37:12;;;;;;;1.90;1.10;;;19.90;53.20;;;;;;5053284;28;20415;-68
2023/06/03 12:39:48;;;;;;;1.57;1.27;;;19.80;52.00;;;;;;5046797;28;20430;-69
2023/06/03 12:42:33;;;;;;;2.63;1.50;;;20.00;52.20;;;;;;5053231;28;20439;-69
2023/06/03 12:44:58;;;;;;;1.63;1.30;;;20.00;52.00;;;;;;5050695;28;21078;-69
2023/06/03 12:47:24;;;;;;;4.10;1.53;;;20.00;52.00;;;;;;5052761;28;20420;-68
2023/06/03 12:50:07;;;;;;;2.67;1.23;;;19.90;52.90;;;;;;5048038;28;20702;-69
2023/06/03 12:52:36;;;;;;;1.37;1.10;;;19.80;52.20;;;;;;5052166;28;20229;-68
2023/06/03 12:55:03;;;;;;;2.20;1.30;;;19.70;53.00;;;;;;5048888;28;20410;-69
2023/06/03 12:57:32;;;;;;;2.17;1.40;;;19.80;51.90;;;;;;5050737;28;20402;-67
2023/06/03 13:00:11;;;;;;;1.37;1.20;;;19.70;51.60;;;;;;5046354;28;20429;-67